sensor_id;sensor_type;location;lat;lon;timestamp;P1;durP1;ratioP1;P2;durP2;ratioP2
2522;SDS011;1272;53.332;9.860;2024-03-02T00:02:11;10.50;;;7.67;;
2522;SDS011;1272;53.332;9.860;2024-03-02T00:04:38;12.37;;;8.27;;
2522;SDS011;1272;53.332;9.860;2024-03-02T00:07:03;9.40;;;8.27;;
2522;SDS011;1272;53.332;9.860;2024-03-02T00:09:29;8.83;;;6.97;;
2522;SDS011;1272;53.332;9.860;2024-03-02T00:11:55;9.87;;;6.93;;
2522;SDS011;1272;53.332;9.860;2024-03-02T00:14:21;9.30;;;7.30;;
2522;SDS011;1272;53.332;9.860;2024-03-02T00:16:49;9.37;;;7.30;;
2522;SDS011;1272;53.332;9.860;2024-03-02T00:19:16;8.40;;;7.27;;
2522;SDS011;1272;53.332;9.860;2024-03-02T00:21:43;10.57;;;7.50;;
2522;SDS011;1272;53.332;9.860;2024-03-02T00:24:24;12.07;;;7.83;;
2522;SDS011;1272;53.332;9.860;2024-03-02T00:26:58;13.40;;;7.40;;
2522;SDS011;1272;53.332;9.860;2024-03-02T00:29:24;10.10;;;7.80;;
2522;SDS011;1272;53.332;9.860;2024-03-02T00:31:50;9.60;;;7.77;;
2522;SDS011;1272;53.332;9.860;2024-03-02T00:34:17;11.10;;;7.80;;
2522;SDS011;1272;53.332;9.860;2024-03-02T00:36:42;9.37;;;8.00;;
2522;SDS011;1272;53.332;9.860;2024-03-02T00:39:08;13.07;;;7.80;;
2522;SDS011;1272;53.332;9.860;2024-03-02T00:41:38;11.97;;;9.13;;
2522;SDS011;1272;53.332;9.860;2024-03-02T00:44:07;8.03;;;6.67;;
2522;SDS011;1272;53.332;9.860;2024-03-02T00:46:40;12.03;;;8.50;;
2522;SDS011;1272;53.332;9.860;2024-03-02T00:49:23;13.73;;;9.10;;
2522;SDS011;1272;53.332;9.860;2024-03-02T00:51:50;10.40;;;8.97;;
2522;SDS011;1272;53.332;9.860;2024-03-02T00:54:25;11.57;;;8.83;;
2522;SDS011;1272;53.332;9.860;2024-03-02T00:56:51;12.60;;;7.80;;
2522;SDS011;1272;53.332;9.860;2024-03-02T00:59:20;8.83;;;7.30;;
2522;SDS011;1272;53.332;9.860;2024-03-02T01:01:47;17.20;;;9.73;;
2522;SDS011;1272;53.332;9.860;2024-03-02T01:04:14;9.53;;;7.53;;
2522;SDS011;1272;53.332;9.860;2024-03-02T01:06:40;11.33;;;8.40;;
2522;SDS011;1272;53.332;9.860;2024-03-02T01:09:07;14.50;;;8.20;;
2522;SDS011;1272;53.332;9.860;2024-03-02T01:11:33;8.53;;;7.60;;
2522;SDS011;1272;53.332;9.860;2024-03-02T01:13:58;10.23;;;8.43;;
2522;SDS011;1272;53.332;9.860;2024-03-02T01:18:59;10.40;;;8.70;;
2522;SDS011;1272;53.332;9.860;2024-03-02T01:21:25;10.40;;;8.80;;
2522;SDS011;1272;53.332;9.860;2024-03-02T01:23:51;11.63;;;7.97;;
2522;SDS011;1272;53.332;9.860;2024-03-02T01:26:17;10.03;;;8.00;;
2522;SDS011;1272;53.332;9.860;2024-03-02T01:28:42;10.40;;;8.43;;
2522;SDS011;1272;53.332;9.860;2024-03-02T01:31:08;12.27;;;8.70;;
2522;SDS011;1272;53.332;9.860;2024-03-02T01:33:34;12.73;;;9.10;;
2522;SDS011;1272;53.332;9.860;2024-03-02T01:35:59;13.50;;;8.17;;
2522;SDS011;1272;53.332;9.860;2024-03-02T01:38:25;10.70;;;7.50;;
2522;SDS011;1272;53.332;9.860;2024-03-02T01:40:51;10.03;;;7.80;;
2522;SDS011;1272;53.332;9.860;2024-03-02T01:43:16;12.10;;;8.43;;
2522;SDS011;1272;53.332;9.860;2024-03-02T01:45:42;10.17;;;7.43;;
2522;SDS011;1272;53.332;9.860;2024-03-02T01:48:08;10.27;;;7.70;;
2522;SDS011;1272;53.332;9.860;2024-03-02T01:50:34;10.43;;;7.93;;
2522;SDS011;1272;53.332;9.860;2024-03-02T01:53:01;9.90;;;8.00;;
2522;SDS011;1272;53.332;9.860;2024-03-02T01:55:29;12.83;;;8.60;;
2522;SDS011;1272;53.332;9.860;2024-03-02T01:57:55;11.40;;;7.33;;
2522;SDS011;1272;53.332;9.860;2024-03-02T02:00:21;10.63;;;8.37;;
2522;SDS011;1272;53.332;9.860;2024-03-02T02:02:50;12.23;;;8.60;;
2522;SDS011;1272;53.332;9.860;2024-03-02T02:05:16;9.87;;;7.53;;
2522;SDS011;1272;53.332;9.860;2024-03-02T02:07:43;10.93;;;8.87;;
2522;SDS011;1272;53.332;9.860;2024-03-02T02:10:09;12.30;;;8.83;;
2522;SDS011;1272;53.332;9.860;2024-03-02T02:12:35;9.47;;;7.43;;
2522;SDS011;1272;53.332;9.860;2024-03-02T02:15:02;12.30;;;9.37;;
2522;SDS011;1272;53.332;9.860;2024-03-02T02:17:28;11.33;;;8.40;;
2522;SDS011;1272;53.332;9.860;2024-03-02T02:19:54;11.67;;;8.63;;
2522;SDS011;1272;53.332;9.860;2024-03-02T02:22:19;11.30;;;8.50;;
2522;SDS011;1272;53.332;9.860;2024-03-02T02:24:45;9.87;;;7.57;;
2522;SDS011;1272;53.332;9.860;2024-03-02T02:27:11;10.97;;;8.60;;
2522;SDS011;1272;53.332;9.860;2024-03-02T02:29:39;11.50;;;8.00;;
2522;SDS011;1272;53.332;9.860;2024-03-02T02:32:05;11.00;;;7.67;;
2522;SDS011;1272;53.332;9.860;2024-03-02T02:34:31;9.03;;;7.73;;
2522;SDS011;1272;53.332;9.860;2024-03-02T02:36:56;11.40;;;8.70;;
2522;SDS011;1272;53.332;9.860;2024-03-02T02:39:22;11.53;;;7.90;;
2522;SDS011;1272;53.332;9.860;2024-03-02T02:41:48;11.37;;;8.13;;
2522;SDS011;1272;53.332;9.860;2024-03-02T02:44:14;13.00;;;8.57;;
2522;SDS011;1272;53.332;9.860;2024-03-02T02:46:40;12.73;;;9.33;;
2522;SDS011;1272;53.332;9.860;2024-03-02T02:49:06;11.30;;;8.40;;
2522;SDS011;1272;53.332;9.860;2024-03-02T02:51:32;11.63;;;9.20;;
2522;SDS011;1272;53.332;9.860;2024-03-02T02:53:58;13.00;;;10.00;;
2522;SDS011;1272;53.332;9.860;2024-03-02T02:56:24;12.07;;;10.43;;
2522;SDS011;1272;53.332;9.860;2024-03-02T02:58:49;11.50;;;8.13;;
2522;SDS011;1272;53.332;9.860;2024-03-02T03:01:15;12.17;;;8.23;;
2522;SDS011;1272;53.332;9.860;2024-03-02T03:03:45;13.17;;;9.30;;
2522;SDS011;1272;53.332;9.860;2024-03-02T03:06:11;11.87;;;9.57;;
2522;SDS011;1272;53.332;9.860;2024-03-02T03:08:37;12.00;;;9.23;;
2522;SDS011;1272;53.332;9.860;2024-03-02T03:11:03;13.67;;;9.60;;
2522;SDS011;1272;53.332;9.860;2024-03-02T03:13:29;11.33;;;8.70;;
2522;SDS011;1272;53.332;9.860;2024-03-02T03:15:59;11.77;;;9.60;;
2522;SDS011;1272;53.332;9.860;2024-03-02T03:18:24;13.30;;;8.93;;
2522;SDS011;1272;53.332;9.860;2024-03-02T03:20:50;11.27;;;8.83;;
2522;SDS011;1272;53.332;9.860;2024-03-02T03:23:16;14.87;;;9.87;;
2522;SDS011;1272;53.332;9.860;2024-03-02T03:25:42;12.37;;;9.07;;
2522;SDS011;1272;53.332;9.860;2024-03-02T03:28:08;11.77;;;9.43;;
2522;SDS011;1272;53.332;9.860;2024-03-02T03:30:36;16.07;;;10.47;;
2522;SDS011;1272;53.332;9.860;2024-03-02T03:33:02;15.50;;;11.00;;
2522;SDS011;1272;53.332;9.860;2024-03-02T03:35:28;15.37;;;11.17;;
2522;SDS011;1272;53.332;9.860;2024-03-02T03:37:53;13.17;;;9.90;;
2522;SDS011;1272;53.332;9.860;2024-03-02T03:40:19;14.90;;;11.60;;
2522;SDS011;1272;53.332;9.860;2024-03-02T03:42:45;12.00;;;8.80;;
2522;SDS011;1272;53.332;9.860;2024-03-02T03:45:10;13.40;;;9.80;;
2522;SDS011;1272;53.332;9.860;2024-03-02T03:47:36;15.43;;;10.50;;
2522;SDS011;1272;53.332;9.860;2024-03-02T03:50:02;18.13;;;11.20;;
2522;SDS011;1272;53.332;9.860;2024-03-02T03:52:31;14.10;;;10.93;;
2522;SDS011;1272;53.332;9.860;2024-03-02T03:54:57;14.80;;;11.90;;
2522;SDS011;1272;53.332;9.860;2024-03-02T03:57:23;18.57;;;11.83;;
2522;SDS011;1272;53.332;9.860;2024-03-02T03:59:48;16.47;;;10.50;;
2522;SDS011;1272;53.332;9.860;2024-03-02T04:02:14;14.43;;;10.53;;
2522;SDS011;1272;53.332;9.860;2024-03-02T04:04:40;15.73;;;10.33;;
2522;SDS011;1272;53.332;9.860;2024-03-02T04:07:05;15.60;;;11.40;;
2522;SDS011;1272;53.332;9.860;2024-03-02T04:09:31;16.07;;;11.07;;
2522;SDS011;1272;53.332;9.860;2024-03-02T04:11:57;12.77;;;10.27;;
2522;SDS011;1272;53.332;9.860;2024-03-02T04:14:23;13.67;;;10.30;;
2522;SDS011;1272;53.332;9.860;2024-03-02T04:16:49;12.33;;;9.20;;
2522;SDS011;1272;53.332;9.860;2024-03-02T04:19:14;14.90;;;10.10;;
2522;SDS011;1272;53.332;9.860;2024-03-02T04:21:40;14.27;;;10.30;;
2522;SDS011;1272;53.332;9.860;2024-03-02T04:24:06;15.60;;;12.03;;
2522;SDS011;1272;53.332;9.860;2024-03-02T04:26:31;13.30;;;10.50;;
2522;SDS011;1272;53.332;9.860;2024-03-02T04:28:57;14.70;;;10.40;;
2522;SDS011;1272;53.332;9.860;2024-03-02T04:31:22;20.57;;;13.13;;
2522;SDS011;1272;53.332;9.860;2024-03-02T04:33:48;13.57;;;10.87;;
2522;SDS011;1272;53.332;9.860;2024-03-02T04:36:14;15.40;;;11.27;;
2522;SDS011;1272;53.332;9.860;2024-03-02T04:38:39;14.77;;;11.53;;
2522;SDS011;1272;53.332;9.860;2024-03-02T04:41:06;16.20;;;11.60;;
2522;SDS011;1272;53.332;9.860;2024-03-02T04:43:32;17.17;;;11.70;;
2522;SDS011;1272;53.332;9.860;2024-03-02T04:45:58;15.03;;;11.00;;
2522;SDS011;1272;53.332;9.860;2024-03-02T04:48:24;17.17;;;11.80;;
2522;SDS011;1272;53.332;9.860;2024-03-02T04:50:50;18.70;;;11.50;;
2522;SDS011;1272;53.332;9.860;2024-03-02T04:53:16;14.80;;;11.40;;
2522;SDS011;1272;53.332;9.860;2024-03-02T04:55:41;17.60;;;12.90;;
2522;SDS011;1272;53.332;9.860;2024-03-02T04:58:07;21.23;;;14.27;;
2522;SDS011;1272;53.332;9.860;2024-03-02T05:00:33;18.90;;;12.20;;
2522;SDS011;1272;53.332;9.860;2024-03-02T05:02:59;18.03;;;11.90;;
2522;SDS011;1272;53.332;9.860;2024-03-02T05:05:25;21.67;;;14.33;;
2522;SDS011;1272;53.332;9.860;2024-03-02T05:07:51;17.90;;;12.30;;
2522;SDS011;1272;53.332;9.860;2024-03-02T05:10:17;19.30;;;11.43;;
2522;SDS011;1272;53.332;9.860;2024-03-02T05:12:43;18.93;;;11.50;;
2522;SDS011;1272;53.332;9.860;2024-03-02T05:15:09;16.30;;;11.27;;
2522;SDS011;1272;53.332;9.860;2024-03-02T05:17:38;19.07;;;11.13;;
2522;SDS011;1272;53.332;9.860;2024-03-02T05:20:08;17.67;;;11.90;;
2522;SDS011;1272;53.332;9.860;2024-03-02T05:22:34;16.80;;;11.20;;
2522;SDS011;1272;53.332;9.860;2024-03-02T05:25:00;18.47;;;12.43;;
2522;SDS011;1272;53.332;9.860;2024-03-02T05:27:27;15.07;;;10.90;;
2522;SDS011;1272;53.332;9.860;2024-03-02T05:29:53;14.23;;;10.43;;
2522;SDS011;1272;53.332;9.860;2024-03-02T05:32:18;18.00;;;11.93;;
2522;SDS011;1272;53.332;9.860;2024-03-02T05:34:44;15.93;;;12.00;;
2522;SDS011;1272;53.332;9.860;2024-03-02T05:37:10;16.90;;;11.27;;
2522;SDS011;1272;53.332;9.860;2024-03-02T05:39:36;15.43;;;10.23;;
2522;SDS011;1272;53.332;9.860;2024-03-02T05:42:01;17.93;;;10.87;;
2522;SDS011;1272;53.332;9.860;2024-03-02T05:44:28;18.33;;;11.93;;
2522;SDS011;1272;53.332;9.860;2024-03-02T05:46:54;16.23;;;11.07;;
2522;SDS011;1272;53.332;9.860;2024-03-02T05:49:20;17.87;;;11.57;;
2522;SDS011;1272;53.332;9.860;2024-03-02T05:51:45;14.77;;;11.47;;
2522;SDS011;1272;53.332;9.860;2024-03-02T05:54:11;19.27;;;12.37;;
2522;SDS011;1272;53.332;9.860;2024-03-02T05:56:37;16.57;;;11.83;;
2522;SDS011;1272;53.332;9.860;2024-03-02T05:59:02;19.40;;;11.27;;
2522;SDS011;1272;53.332;9.860;2024-03-02T06:01:41;16.63;;;11.90;;
2522;SDS011;1272;53.332;9.860;2024-03-02T06:04:08;16.27;;;11.03;;
2522;SDS011;1272;53.332;9.860;2024-03-02T06:06:34;15.30;;;10.43;;
2522;SDS011;1272;53.332;9.860;2024-03-02T06:09:03;19.77;;;11.17;;
2522;SDS011;1272;53.332;9.860;2024-03-02T06:11:39;14.50;;;9.37;;
2522;SDS011;1272;53.332;9.860;2024-03-02T06:14:06;15.40;;;10.40;;
2522;SDS011;1272;53.332;9.860;2024-03-02T06:16:32;13.90;;;10.97;;
2522;SDS011;1272;53.332;9.860;2024-03-02T06:18:59;11.67;;;8.43;;
2522;SDS011;1272;53.332;9.860;2024-03-02T06:21:25;15.43;;;10.87;;
2522;SDS011;1272;53.332;9.860;2024-03-02T06:23:51;15.20;;;10.07;;
2522;SDS011;1272;53.332;9.860;2024-03-02T06:26:16;14.23;;;9.20;;
2522;SDS011;1272;53.332;9.860;2024-03-02T06:28:43;15.50;;;10.40;;
2522;SDS011;1272;53.332;9.860;2024-03-02T06:31:09;15.00;;;9.87;;
2522;SDS011;1272;53.332;9.860;2024-03-02T06:33:35;13.07;;;9.70;;
2522;SDS011;1272;53.332;9.860;2024-03-02T06:36:00;14.33;;;10.87;;
2522;SDS011;1272;53.332;9.860;2024-03-02T06:38:27;15.40;;;10.20;;
2522;SDS011;1272;53.332;9.860;2024-03-02T06:40:53;15.40;;;9.97;;
2522;SDS011;1272;53.332;9.860;2024-03-02T06:43:19;13.70;;;9.80;;
2522;SDS011;1272;53.332;9.860;2024-03-02T06:45:48;17.87;;;9.80;;
2522;SDS011;1272;53.332;9.860;2024-03-02T06:48:14;18.77;;;11.40;;
2522;SDS011;1272;53.332;9.860;2024-03-02T06:50:44;16.17;;;10.93;;
2522;SDS011;1272;53.332;9.860;2024-03-02T06:53:13;14.20;;;11.17;;
2522;SDS011;1272;53.332;9.860;2024-03-02T06:55:42;12.53;;;10.40;;
2522;SDS011;1272;53.332;9.860;2024-03-02T06:58:11;16.67;;;11.20;;
2522;SDS011;1272;53.332;9.860;2024-03-02T07:00:40;14.23;;;9.73;;
2522;SDS011;1272;53.332;9.860;2024-03-02T07:03:05;15.90;;;9.73;;
2522;SDS011;1272;53.332;9.860;2024-03-02T07:05:31;12.43;;;9.83;;
2522;SDS011;1272;53.332;9.860;2024-03-02T07:07:57;12.50;;;9.03;;
2522;SDS011;1272;53.332;9.860;2024-03-02T07:10:22;15.30;;;11.33;;
2522;SDS011;1272;53.332;9.860;2024-03-02T07:12:49;18.80;;;12.57;;
2522;SDS011;1272;53.332;9.860;2024-03-02T07:15:14;13.83;;;10.53;;
2522;SDS011;1272;53.332;9.860;2024-03-02T07:17:52;17.50;;;10.57;;
2522;SDS011;1272;53.332;9.860;2024-03-02T07:20:17;13.70;;;10.20;;
2522;SDS011;1272;53.332;9.860;2024-03-02T07:22:43;14.00;;;10.77;;
2522;SDS011;1272;53.332;9.860;2024-03-02T07:25:09;15.03;;;11.70;;
2522;SDS011;1272;53.332;9.860;2024-03-02T07:27:34;20.50;;;12.63;;
2522;SDS011;1272;53.332;9.860;2024-03-02T07:30:02;17.67;;;10.87;;
2522;SDS011;1272;53.332;9.860;2024-03-02T07:32:28;19.83;;;12.63;;
2522;SDS011;1272;53.332;9.860;2024-03-02T07:34:54;21.00;;;12.30;;
2522;SDS011;1272;53.332;9.860;2024-03-02T07:37:20;20.80;;;11.37;;
2522;SDS011;1272;53.332;9.860;2024-03-02T07:39:46;14.93;;;11.17;;
2522;SDS011;1272;53.332;9.860;2024-03-02T07:42:12;16.80;;;10.93;;
2522;SDS011;1272;53.332;9.860;2024-03-02T07:44:38;17.77;;;12.10;;
2522;SDS011;1272;53.332;9.860;2024-03-02T07:47:04;17.80;;;11.13;;
2522;SDS011;1272;53.332;9.860;2024-03-02T07:49:29;14.00;;;10.67;;
2522;SDS011;1272;53.332;9.860;2024-03-02T07:51:55;17.47;;;10.70;;
2522;SDS011;1272;53.332;9.860;2024-03-02T07:54:21;17.43;;;11.60;;
2522;SDS011;1272;53.332;9.860;2024-03-02T07:56:46;15.90;;;10.87;;
2522;SDS011;1272;53.332;9.860;2024-03-02T07:59:12;17.30;;;11.47;;
2522;SDS011;1272;53.332;9.860;2024-03-02T08:01:38;15.23;;;10.87;;
2522;SDS011;1272;53.332;9.860;2024-03-02T08:04:04;14.80;;;11.70;;
2522;SDS011;1272;53.332;9.860;2024-03-02T08:06:30;15.10;;;10.83;;
2522;SDS011;1272;53.332;9.860;2024-03-02T08:08:59;21.50;;;13.00;;
2522;SDS011;1272;53.332;9.860;2024-03-02T08:11:26;21.50;;;12.77;;
2522;SDS011;1272;53.332;9.860;2024-03-02T08:13:56;13.93;;;10.77;;
2522;SDS011;1272;53.332;9.860;2024-03-02T08:16:24;13.67;;;10.67;;
2522;SDS011;1272;53.332;9.860;2024-03-02T08:18:50;17.90;;;10.30;;
2522;SDS011;1272;53.332;9.860;2024-03-02T08:21:17;19.13;;;12.03;;
2522;SDS011;1272;53.332;9.860;2024-03-02T08:23:43;14.50;;;10.80;;
2522;SDS011;1272;53.332;9.860;2024-03-02T08:26:09;16.43;;;11.20;;
2522;SDS011;1272;53.332;9.860;2024-03-02T08:28:35;15.83;;;11.00;;
2522;SDS011;1272;53.332;9.860;2024-03-02T08:31:05;18.70;;;11.43;;
2522;SDS011;1272;53.332;9.860;2024-03-02T08:33:32;14.40;;;11.13;;
2522;SDS011;1272;53.332;9.860;2024-03-02T08:35:57;18.60;;;12.10;;
2522;SDS011;1272;53.332;9.860;2024-03-02T08:38:24;18.10;;;11.97;;
2522;SDS011;1272;53.332;9.860;2024-03-02T08:40:49;18.77;;;12.30;;
2522;SDS011;1272;53.332;9.860;2024-03-02T08:43:15;17.90;;;12.17;;
2522;SDS011;1272;53.332;9.860;2024-03-02T08:45:41;16.20;;;11.40;;
2522;SDS011;1272;53.332;9.860;2024-03-02T08:48:07;18.17;;;11.37;;
2522;SDS011;1272;53.332;9.860;2024-03-02T08:50:33;13.83;;;10.03;;
2522;SDS011;1272;53.332;9.860;2024-03-02T08:53:00;16.30;;;11.90;;
2522;SDS011;1272;53.332;9.860;2024-03-02T08:55:26;17.87;;;11.90;;
2522;SDS011;1272;53.332;9.860;2024-03-02T08:57:51;13.20;;;11.40;;
2522;SDS011;1272;53.332;9.860;2024-03-02T09:00:17;20.63;;;12.50;;
2522;SDS011;1272;53.332;9.860;2024-03-02T09:02:44;17.27;;;10.90;;
2522;SDS011;1272;53.332;9.860;2024-03-02T09:05:10;17.97;;;11.67;;
2522;SDS011;1272;53.332;9.860;2024-03-02T09:07:36;17.03;;;10.37;;
2522;SDS011;1272;53.332;9.860;2024-03-02T09:10:03;21.47;;;13.47;;
2522;SDS011;1272;53.332;9.860;2024-03-02T09:12:30;16.10;;;10.97;;
2522;SDS011;1272;53.332;9.860;2024-03-02T09:14:55;13.77;;;9.90;;
2522;SDS011;1272;53.332;9.860;2024-03-02T09:17:22;18.33;;;11.77;;
2522;SDS011;1272;53.332;9.860;2024-03-02T09:19:48;16.23;;;10.87;;
2522;SDS011;1272;53.332;9.860;2024-03-02T09:22:16;16.90;;;12.03;;
2522;SDS011;1272;53.332;9.860;2024-03-02T09:24:41;15.47;;;11.03;;
2522;SDS011;1272;53.332;9.860;2024-03-02T09:27:07;21.77;;;12.37;;
2522;SDS011;1272;53.332;9.860;2024-03-02T09:29:33;13.97;;;9.00;;
2522;SDS011;1272;53.332;9.860;2024-03-02T09:31:58;15.47;;;9.97;;
2522;SDS011;1272;53.332;9.860;2024-03-02T09:34:24;16.33;;;10.73;;
2522;SDS011;1272;53.332;9.860;2024-03-02T09:36:50;17.73;;;10.23;;
2522;SDS011;1272;53.332;9.860;2024-03-02T09:39:16;12.70;;;7.70;;
2522;SDS011;1272;53.332;9.860;2024-03-02T09:41:43;12.57;;;9.47;;
2522;SDS011;1272;53.332;9.860;2024-03-02T09:44:09;17.13;;;9.73;;
2522;SDS011;1272;53.332;9.860;2024-03-02T09:46:35;12.70;;;8.67;;
2522;SDS011;1272;53.332;9.860;2024-03-02T09:49:01;14.83;;;10.10;;
2522;SDS011;1272;53.332;9.860;2024-03-02T09:51:27;13.93;;;8.77;;
2522;SDS011;1272;53.332;9.860;2024-03-02T09:53:53;10.67;;;8.87;;
2522;SDS011;1272;53.332;9.860;2024-03-02T09:56:23;12.33;;;8.40;;
2522;SDS011;1272;53.332;9.860;2024-03-02T09:58:48;10.57;;;8.13;;
2522;SDS011;1272;53.332;9.860;2024-03-02T10:01:14;10.40;;;7.80;;
2522;SDS011;1272;53.332;9.860;2024-03-02T10:03:40;11.87;;;8.03;;
2522;SDS011;1272;53.332;9.860;2024-03-02T10:06:25;8.60;;;7.47;;
2522;SDS011;1272;53.332;9.860;2024-03-02T10:08:52;10.37;;;7.40;;
2522;SDS011;1272;53.332;9.860;2024-03-02T10:11:26;11.77;;;7.57;;
2522;SDS011;1272;53.332;9.860;2024-03-02T10:14:09;11.37;;;8.13;;
2522;SDS011;1272;53.332;9.860;2024-03-02T10:16:36;9.73;;;6.87;;
2522;SDS011;1272;53.332;9.860;2024-03-02T10:19:22;9.70;;;6.37;;
2522;SDS011;1272;53.332;9.860;2024-03-02T10:21:49;8.27;;;6.23;;
2522;SDS011;1272;53.332;9.860;2024-03-02T10:24:20;7.93;;;5.93;;
2522;SDS011;1272;53.332;9.860;2024-03-02T10:26:47;8.70;;;7.20;;
2522;SDS011;1272;53.332;9.860;2024-03-02T10:29:13;8.23;;;6.20;;
2522;SDS011;1272;53.332;9.860;2024-03-02T10:31:40;9.90;;;8.07;;
2522;SDS011;1272;53.332;9.860;2024-03-02T10:34:10;11.00;;;6.70;;
2522;SDS011;1272;53.332;9.860;2024-03-02T10:36:42;7.00;;;5.83;;
2522;SDS011;1272;53.332;9.860;2024-03-02T10:39:09;7.10;;;6.03;;
2522;SDS011;1272;53.332;9.860;2024-03-02T10:41:35;6.80;;;5.97;;
2522;SDS011;1272;53.332;9.860;2024-03-02T10:44:03;7.83;;;5.53;;
2522;SDS011;1272;53.332;9.860;2024-03-02T10:46:30;9.30;;;5.50;;
2522;SDS011;1272;53.332;9.860;2024-03-02T10:48:57;7.63;;;5.83;;
2522;SDS011;1272;53.332;9.860;2024-03-02T10:51:26;8.00;;;6.40;;
2522;SDS011;1272;53.332;9.860;2024-03-02T10:53:56;10.33;;;6.73;;
2522;SDS011;1272;53.332;9.860;2024-03-02T10:56:29;9.77;;;6.33;;
2522;SDS011;1272;53.332;9.860;2024-03-02T11:01:59;9.23;;;6.83;;
2522;SDS011;1272;53.332;9.860;2024-03-02T11:04:26;8.03;;;6.17;;
2522;SDS011;1272;53.332;9.860;2024-03-02T11:06:54;8.47;;;7.40;;
2522;SDS011;1272;53.332;9.860;2024-03-02T11:09:28;7.77;;;6.17;;
2522;SDS011;1272;53.332;9.860;2024-03-02T11:14:59;9.80;;;5.83;;
2522;SDS011;1272;53.332;9.860;2024-03-02T11:17:25;6.03;;;4.60;;
2522;SDS011;1272;53.332;9.860;2024-03-02T11:19:52;5.70;;;4.37;;
2522;SDS011;1272;53.332;9.860;2024-03-02T11:22:18;8.30;;;5.90;;
2522;SDS011;1272;53.332;9.860;2024-03-02T11:24:51;11.37;;;6.27;;
2522;SDS011;1272;53.332;9.860;2024-03-02T11:33:01;6.53;;;5.27;;
2522;SDS011;1272;53.332;9.860;2024-03-02T11:35:43;6.17;;;5.10;;
2522;SDS011;1272;53.332;9.860;2024-03-02T11:38:13;8.10;;;5.73;;
2522;SDS011;1272;53.332;9.860;2024-03-02T11:40:39;5.83;;;4.90;;
2522;SDS011;1272;53.332;9.860;2024-03-02T11:43:06;9.00;;;5.60;;
2522;SDS011;1272;53.332;9.860;2024-03-02T11:45:35;5.90;;;5.00;;
2522;SDS011;1272;53.332;9.860;2024-03-02T11:48:06;7.40;;;4.93;;
2522;SDS011;1272;53.332;9.860;2024-03-02T11:50:41;6.93;;;5.40;;
2522;SDS011;1272;53.332;9.860;2024-03-02T11:53:11;9.20;;;5.73;;
2522;SDS011;1272;53.332;9.860;2024-03-02T11:55:39;6.50;;;5.30;;
2522;SDS011;1272;53.332;9.860;2024-03-02T11:58:06;7.07;;;6.10;;
2522;SDS011;1272;53.332;9.860;2024-03-02T12:00:32;5.97;;;4.60;;
2522;SDS011;1272;53.332;9.860;2024-03-02T12:03:04;6.37;;;4.90;;
2522;SDS011;1272;53.332;9.860;2024-03-02T12:05:34;4.70;;;4.20;;
2522;SDS011;1272;53.332;9.860;2024-03-02T12:08:01;7.87;;;5.10;;
2522;SDS011;1272;53.332;9.860;2024-03-02T12:10:29;6.13;;;4.20;;
2522;SDS011;1272;53.332;9.860;2024-03-02T12:13:05;6.93;;;3.97;;
2522;SDS011;1272;53.332;9.860;2024-03-02T12:15:36;3.93;;;3.63;;
2522;SDS011;1272;53.332;9.860;2024-03-02T12:18:02;6.50;;;3.90;;
2522;SDS011;1272;53.332;9.860;2024-03-02T12:20:29;6.50;;;4.63;;
2522;SDS011;1272;53.332;9.860;2024-03-02T12:23:00;7.27;;;5.27;;
2522;SDS011;1272;53.332;9.860;2024-03-02T12:25:27;6.03;;;4.30;;
2522;SDS011;1272;53.332;9.860;2024-03-02T12:27:55;6.90;;;5.30;;
2522;SDS011;1272;53.332;9.860;2024-03-02T12:30:23;6.67;;;4.93;;
2522;SDS011;1272;53.332;9.860;2024-03-02T12:32:51;7.77;;;5.60;;
2522;SDS011;1272;53.332;9.860;2024-03-02T12:35:20;7.67;;;5.80;;
2522;SDS011;1272;53.332;9.860;2024-03-02T12:37:47;5.20;;;4.70;;
2522;SDS011;1272;53.332;9.860;2024-03-02T12:40:15;7.40;;;5.23;;
2522;SDS011;1272;53.332;9.860;2024-03-02T12:42:43;6.70;;;5.33;;
2522;SDS011;1272;53.332;9.860;2024-03-02T12:45:10;7.50;;;5.50;;
2522;SDS011;1272;53.332;9.860;2024-03-02T12:47:36;7.13;;;5.53;;
2522;SDS011;1272;53.332;9.860;2024-03-02T12:50:04;5.83;;;4.50;;
2522;SDS011;1272;53.332;9.860;2024-03-02T12:52:30;5.47;;;4.90;;
2522;SDS011;1272;53.332;9.860;2024-03-02T12:55:03;6.80;;;5.00;;
2522;SDS011;1272;53.332;9.860;2024-03-02T12:57:30;5.73;;;4.77;;
2522;SDS011;1272;53.332;9.860;2024-03-02T13:00:01;4.80;;;4.00;;
2522;SDS011;1272;53.332;9.860;2024-03-02T13:02:40;6.33;;;4.37;;
2522;SDS011;1272;53.332;9.860;2024-03-02T13:05:10;6.40;;;4.60;;
2522;SDS011;1272;53.332;9.860;2024-03-02T13:07:36;4.60;;;4.13;;
2522;SDS011;1272;53.332;9.860;2024-03-02T13:10:03;5.17;;;3.93;;
2522;SDS011;1272;53.332;9.860;2024-03-02T13:12:29;6.27;;;3.53;;
2522;SDS011;1272;53.332;9.860;2024-03-02T13:14:57;5.93;;;5.33;;
2522;SDS011;1272;53.332;9.860;2024-03-02T13:17:27;4.83;;;4.40;;
2522;SDS011;1272;53.332;9.860;2024-03-02T13:19:53;5.50;;;4.33;;
2522;SDS011;1272;53.332;9.860;2024-03-02T13:22:21;4.40;;;4.00;;
2522;SDS011;1272;53.332;9.860;2024-03-02T13:24:47;7.23;;;4.97;;
2522;SDS011;1272;53.332;9.860;2024-03-02T13:27:16;5.83;;;4.40;;
2522;SDS011;1272;53.332;9.860;2024-03-02T13:29:44;4.90;;;4.40;;
2522;SDS011;1272;53.332;9.860;2024-03-02T13:32:12;4.40;;;3.97;;
2522;SDS011;1272;53.332;9.860;2024-03-02T13:34:38;5.73;;;4.43;;
2522;SDS011;1272;53.332;9.860;2024-03-02T13:37:03;6.53;;;4.40;;
2522;SDS011;1272;53.332;9.860;2024-03-02T13:39:34;3.93;;;3.63;;
2522;SDS011;1272;53.332;9.860;2024-03-02T13:42:08;8.93;;;4.70;;
2522;SDS011;1272;53.332;9.860;2024-03-02T13:44:35;5.50;;;4.27;;
2522;SDS011;1272;53.332;9.860;2024-03-02T13:47:02;4.17;;;3.77;;
2522;SDS011;1272;53.332;9.860;2024-03-02T13:49:28;4.00;;;3.47;;
2522;SDS011;1272;53.332;9.860;2024-03-02T13:52:05;4.50;;;4.10;;
2522;SDS011;1272;53.332;9.860;2024-03-02T13:54:45;5.53;;;4.17;;
2522;SDS011;1272;53.332;9.860;2024-03-02T13:57:12;6.37;;;4.70;;
2522;SDS011;1272;53.332;9.860;2024-03-02T13:59:38;5.43;;;4.37;;
2522;SDS011;1272;53.332;9.860;2024-03-02T14:02:05;4.40;;;3.90;;
2522;SDS011;1272;53.332;9.860;2024-03-02T14:04:31;4.63;;;3.93;;
2522;SDS011;1272;53.332;9.860;2024-03-02T14:06:58;6.77;;;4.37;;
2522;SDS011;1272;53.332;9.860;2024-03-02T14:09:24;5.10;;;3.73;;
2522;SDS011;1272;53.332;9.860;2024-03-02T14:11:50;3.93;;;3.60;;
2522;SDS011;1272;53.332;9.860;2024-03-02T14:14:19;4.23;;;3.60;;
2522;SDS011;1272;53.332;9.860;2024-03-02T14:16:45;3.70;;;3.10;;
2522;SDS011;1272;53.332;9.860;2024-03-02T14:19:11;4.83;;;4.43;;
2522;SDS011;1272;53.332;9.860;2024-03-02T14:21:37;4.70;;;4.20;;
2522;SDS011;1272;53.332;9.860;2024-03-02T14:24:04;4.60;;;3.90;;
2522;SDS011;1272;53.332;9.860;2024-03-02T14:26:31;5.10;;;4.40;;
2522;SDS011;1272;53.332;9.860;2024-03-02T14:28:58;4.67;;;3.60;;
2522;SDS011;1272;53.332;9.860;2024-03-02T14:31:24;4.47;;;4.07;;
2522;SDS011;1272;53.332;9.860;2024-03-02T14:33:51;4.80;;;4.03;;
2522;SDS011;1272;53.332;9.860;2024-03-02T14:36:18;4.80;;;4.33;;
2522;SDS011;1272;53.332;9.860;2024-03-02T14:38:43;4.43;;;3.70;;
2522;SDS011;1272;53.332;9.860;2024-03-02T14:41:09;7.20;;;3.97;;
2522;SDS011;1272;53.332;9.860;2024-03-02T14:43:35;5.00;;;4.47;;
2522;SDS011;1272;53.332;9.860;2024-03-02T14:46:03;8.67;;;5.33;;
2522;SDS011;1272;53.332;9.860;2024-03-02T14:48:29;4.20;;;3.80;;
2522;SDS011;1272;53.332;9.860;2024-03-02T14:50:55;3.93;;;3.43;;
2522;SDS011;1272;53.332;9.860;2024-03-02T14:53:21;4.20;;;3.80;;
2522;SDS011;1272;53.332;9.860;2024-03-02T14:55:47;4.90;;;4.47;;
2522;SDS011;1272;53.332;9.860;2024-03-02T14:58:13;3.33;;;3.13;;
2522;SDS011;1272;53.332;9.860;2024-03-02T15:00:38;4.73;;;3.87;;
2522;SDS011;1272;53.332;9.860;2024-03-02T15:03:04;4.93;;;4.37;;
2522;SDS011;1272;53.332;9.860;2024-03-02T15:05:33;3.70;;;3.40;;
2522;SDS011;1272;53.332;9.860;2024-03-02T15:07:59;4.97;;;4.10;;
2522;SDS011;1272;53.332;9.860;2024-03-02T15:10:27;4.37;;;3.70;;
2522;SDS011;1272;53.332;9.860;2024-03-02T15:12:53;4.77;;;4.37;;
2522;SDS011;1272;53.332;9.860;2024-03-02T15:15:19;4.43;;;3.43;;